Time;durP1;ratioP1;P1;durP2;ratioP2;P2;SDS_P1;SDS_P2;PMS_P1;PMS_P2;Temp;Humidity;BMP_temperature;BMP_pressure;BME280_temperature;BME280_humidity;BME280_pressure;Samples;Min_cycle;Max_cycle;Signal;HPM_P1;HPM_P2
2023/06/14 00:02:01;;;;;;;9.37;5.90;;;;;;;11.01;73.70;93434.09;5030101;28;20046;-58
2023/06/14 00:04:28;;;;;;;20.00;11.32;;;;;;;11.05;73.51;93443.03;5031676;28;20068;-62
2023/06/14 00:06:56;;;;;;;9.82;6.80;;;;;;;11.02;73.70;93427.41;5030873;28;20033;-59
2023/06/14 00:09:23;;;;;;;9.50;6.25;;;;;;;10.99;72.85;93437.28;5031515;28;20053;-62
2023/06/14 00:11:50;;;;;;;10.07;6.45;;;;;;;10.99;72.62;93420.81;5029605;28;20057;-59
2023/06/14 00:14:16;;;;;;;9.87;6.10;;;;;;;10.95;72.85;93430.34;5031673;28;20041;-57
2023/06/14 00:16:44;;;;;;;10.25;6.20;;;;;;;10.97;72.55;93419.69;5030709;28;20055;-57
2023/06/14 00:19:11;;;;;;;9.35;6.35;;;;;;;10.98;72.05;93419.25;5021632;28;20479;-58
2023/06/14 00:21:38;;;;;;;9.80;6.03;;;;;;;10.93;72.55;93421.75;5027825;28;20045;-63
2023/06/14 00:24:05;;;;;;;9.68;6.20;;;;;;;10.88;73.25;93425.78;5030806;28;20530;-59
2023/06/14 00:26:32;;;;;;;10.60;6.30;;;;;;;10.85;72.81;93412.16;5017941;28;20044;-61
2023/06/14 00:28:59;;;;;;;50.00;28.13;;;;;;;10.87;72.89;93418.00;5030978;28;20041;-57
2023/06/14 00:31:26;;;;;;;50.13;31.42;;;;;;;10.85;73.00;93414.91;5029565;28;20037;-57
2023/06/14 00:33:52;;;;;;;22.45;12.32;;;;;;;10.75;73.55;93422.19;5018193;28;20045;-62
2023/06/14 00:36:19;;;;;;;9.68;6.13;;;;;;;10.73;74.25;93419.09;5030765;28;20045;-58
2023/06/14 00:38:46;;;;;;;9.90;5.40;;;;;;;10.67;74.61;93421.56;5025033;28;20409;-57
2023/06/14 00:41:12;;;;;;;8.18;5.57;;;;;;;10.55;75.33;93423.03;5023875;28;20042;-61
2023/06/14 00:43:39;;;;;;;9.45;5.30;;;;;;;10.45;76.83;93423.28;5030268;28;20057;-57
2023/06/14 00:46:06;;;;;;;8.93;5.88;;;;;;;10.35;77.27;93423.09;5019087;28;20479;-58
2023/06/14 00:48:33;;;;;;;9.10;5.65;;;;;;;10.30;76.89;93426.34;5029424;28;20045;-57
2023/06/14 00:51:03;;;;;;;9.60;5.50;;;;;;;10.31;77.40;93425.13;5030547;28;20067;-57
2023/06/14 00:53:33;;;;;;;9.02;5.65;;;;;;;10.29;77.21;93421.25;5017402;28;20111;-58
2023/06/14 00:56:00;;;;;;;10.50;6.28;;;;;;;10.16;78.28;93421.13;5030189;28;20049;-57
2023/06/14 00:58:28;;;;;;;8.95;5.85;;;;;;;10.10;78.33;93420.06;5030403;28;20382;-57
2023/06/14 01:00:56;;;;;;;9.13;5.50;;;;;;;10.10;78.36;93418.13;5030389;28;20479;-58
2023/06/14 01:03:23;;;;;;;10.23;5.70;;;;;;;10.09;78.44;93421.28;5030336;28;20057;-57
2023/06/14 01:06:11;;;;;;;10.02;5.65;;;;;;;10.01;79.77;93426.16;5028958;28;20049;-57
2023/06/14 01:08:51;;;;;;;9.07;5.93;;;;;;;9.80;82.44;93428.13;5030224;28;20037;-57
2023/06/14 01:11:36;;;;;;;9.68;5.70;;;;;;;9.78;82.85;93424.28;5029620;28;20345;-61
2023/06/14 01:14:03;;;;;;;8.07;5.70;;;;;;;9.85;82.30;93421.38;5018932;28;20295;-60
2023/06/14 01:16:32;;;;;;;8.17;5.70;;;;;;;9.80;82.66;93416.41;5028691;28;20042;-57
2023/06/14 01:18:59;;;;;;;9.07;5.88;;;;;;;9.84;82.13;93416.31;5029889;28;20049;-58
2023/06/14 01:21:26;;;;;;;11.82;6.00;;;;;;;9.89;81.87;93424.06;5029873;28;20049;-62
2023/06/14 01:23:52;;;;;;;9.20;6.20;;;;;;;9.82;82.12;93413.22;5029695;28;20042;-57
2023/06/14 01:26:23;;;;;;;9.75;6.45;;;;;;;9.80;82.53;93422.66;5029980;28;20410;-57
2023/06/14 01:28:52;;;;;;;9.70;5.63;;;;;;;9.74;81.98;93418.88;5029624;28;20044;-55
2023/06/14 01:31:22;;;;;;;10.48;6.18;;;;;;;9.57;84.34;93417.25;5028382;28;20122;-57
2023/06/14 01:33:51;;;;;;;9.60;6.07;;;;;;;9.45;85.10;93415.91;5029189;28;20037;-58
2023/06/14 01:36:23;;;;;;;8.70;6.05;;;;;;;9.50;85.06;93423.63;5016246;28;20071;-61
2023/06/14 01:38:51;;;;;;;8.50;6.10;;;;;;;9.52;84.70;93415.78;5020013;28;20042;-62
2023/06/14 01:41:20;;;;;;;9.57;6.47;;;;;;;9.39;86.23;93415.59;5023208;28;20037;-59
2023/06/14 01:43:49;;;;;;;10.43;6.57;;;;;;;9.35;86.92;93414.91;5029117;28;20241;-55
2023/06/14 01:46:17;;;;;;;9.68;6.05;;;;;;;9.36;86.67;93416.47;5016765;28;20054;-57
2023/06/14 01:48:44;;;;;;;8.93;5.85;;;;;;;9.36;86.31;93410.97;5029373;28;20049;-57
2023/06/14 01:51:10;;;;;;;9.52;6.22;;;;;;;9.30;86.78;93418.13;5028526;28;20041;-58
2023/06/14 01:53:37;;;;;;;10.27;6.30;;;;;;;9.28;87.77;93409.56;5024600;28;20056;-58
2023/06/14 01:56:05;;;;;;;10.15;6.20;;;;;;;9.26;88.64;93413.94;5020321;28;20116;-61
2023/06/14 01:58:32;;;;;;;9.40;6.32;;;;;;;9.20;88.60;93414.41;5029482;28;20051;-57
2023/06/14 02:01:00;;;;;;;8.75;6.07;;;;;;;9.11;89.06;93421.59;5029094;28;20102;-57
2023/06/14 02:03:27;;;;;;;9.18;5.97;;;;;;;9.07;89.35;93421.66;5029109;28;20042;-57
2023/06/14 02:05:55;;;;;;;8.40;6.00;;;;;;;9.02;89.87;93413.94;5028518;28;20154;-61
2023/06/14 02:08:23;;;;;;;11.75;6.00;;;;;;;9.04;90.20;93421.75;5029169;28;20041;-61
2023/06/14 02:10:50;;;;;;;11.57;6.45;;;;;;;9.05;90.01;93420.53;5028485;28;20037;-57
2023/06/14 02:13:16;;;;;;;10.75;6.03;;;;;;;9.04;88.91;93411.56;5027686;28;20038;-60
2023/06/14 02:15:45;;;;;;;8.65;5.88;;;;;;;9.02;89.27;93416.69;5029005;28;20068;-57
2023/06/14 02:18:12;;;;;;;9.33;6.10;;;;;;;9.02;89.86;93418.66;5028431;28;20425;-57
2023/06/14 02:20:39;;;;;;;9.02;6.38;;;;;;;8.96;90.54;93418.34;5029013;28;20041;-56
2023/06/14 02:23:07;;;;;;;10.07;6.35;;;;;;;8.91;90.89;93413.34;5028627;28;20502;-57
2023/06/14 02:25:35;;;;;;;9.18;6.07;;;;;;;8.91;90.59;93425.06;5028834;28;20092;-57
2023/06/14 02:28:02;;;;;;;9.20;6.30;;;;;;;8.83;91.27;93415.44;5028673;28;20045;-60
2023/06/14 02:30:29;;;;;;;9.47;5.83;;;;;;;8.82;91.87;93419.38;5028878;28;20296;-61
2023/06/14 02:32:56;;;;;;;9.85;6.35;;;;;;;8.79;92.29;93412.78;5023804;28;20064;-59
2023/06/14 02:35:26;;;;;;;21.55;11.63;;;;;;;8.81;92.20;93415.06;5020419;28;20045;-64
2023/06/14 02:37:53;;;;;;;12.68;7.95;;;;;;;8.83;92.20;93415.44;5028164;28;20041;-61
2023/06/14 02:40:20;;;;;;;14.32;7.55;;;;;;;8.80;91.96;93413.53;5028570;28;20181;-57
2023/06/14 02:42:47;;;;;;;11.80;6.67;;;;;;;8.79;92.19;93423.72;5028815;28;20053;-60
2023/06/14 02:45:13;;;;;;;9.73;6.40;;;;;;;8.75;91.78;93419.47;5027660;28;21799;-57
2023/06/14 02:47:40;;;;;;;9.13;6.35;;;;;;;8.69;92.12;93416.47;5028609;28;20052;-57
2023/06/14 02:50:08;;;;;;;9.77;6.30;;;;;;;8.46;95.04;93414.47;5024482;28;20143;-61
2023/06/14 02:52:34;;;;;;;10.27;6.18;;;;;;;8.39;94.93;93422.72;5009005;28;20042;-62
2023/06/14 02:55:01;;;;;;;8.77;5.93;;;;;;;8.40;95.47;93410.63;5008539;28;20046;-60
2023/06/14 02:57:28;;;;;;;9.85;5.50;;;;;;;8.38;95.59;93416.50;5017349;28;20045;-57
2023/06/14 02:59:55;;;;;;;9.00;5.97;;;;;;;8.33;95.90;93419.72;5027736;28;20067;-57
2023/06/14 03:02:21;;;;;;;9.02;5.82;;;;;;;8.32;95.56;93418.16;5028610;28;20624;-60
2023/06/14 03:04:48;;;;;;;9.32;6.30;;;;;;;8.27;96.13;93415.09;5027788;28;20049;-57
2023/06/14 03:07:19;;;;;;;10.93;5.83;;;;;;;8.26;96.71;93421.78;5023352;28;20048;-63
2023/06/14 03:09:48;;;;;;;9.25;6.07;;;;;;;8.26;96.28;93416.31;5001963;28;20072;-65
2023/06/14 03:12:15;;;;;;;10.18;6.25;;;;;;;8.25;96.44;93423.75;5011769;28;20356;-61
2023/06/14 03:14:43;;;;;;;9.50;6.13;;;;;;;8.25;97.35;93412.81;5028394;28;20707;-61
2023/06/14 03:17:10;;;;;;;10.98;6.30;;;;;;;8.27;96.99;93428.78;4998206;28;20041;-58
2023/06/14 03:19:37;;;;;;;8.67;6.10;;;;;;;8.25;96.57;93429.22;5028795;28;20506;-59
2023/06/14 03:22:04;;;;;;;10.13;5.90;;;;;;;8.27;96.83;93431.50;5025905;28;20130;-62
2023/06/14 03:24:36;;;;;;;9.15;5.93;;;;;;;8.25;97.32;93429.22;4997304;28;20054;-57
2023/06/14 03:27:03;;;;;;;10.48;6.13;;;;;;;8.22;98.02;93430.03;4988619;28;20054;-59
2023/06/14 03:29:31;;;;;;;9.80;6.40;;;;;;;8.15;98.63;93430.13;4999836;28;20038;-62
2023/06/14 03:32:03;;;;;;;10.90;6.03;;;;;;;8.17;97.79;93439.47;4989540;28;20054;-63
2023/06/14 03:34:30;;;;;;;8.93;5.97;;;;;;;8.13;98.30;93440.66;4987888;28;20043;-62
2023/06/14 03:36:56;;;;;;;9.75;6.10;;;;;;;8.14;98.30;93443.00;5007392;28;20049;-61
2023/06/14 03:39:23;;;;;;;9.40;6.00;;;;;;;8.19;98.51;93447.25;5027000;28;20041;-60
2023/06/14 03:41:50;;;;;;;9.57;5.95;;;;;;;8.23;98.37;93450.72;5027448;28;20041;-57
2023/06/14 03:44:18;;;;;;;9.80;5.87;;;;;;;8.17;98.20;93444.94;5022829;28;20045;-56
2023/06/14 03:46:46;;;;;;;9.70;5.80;;;;;;;8.24;97.83;93452.25;5001575;28;20123;-59
2023/06/14 03:49:13;;;;;;;11.75;5.70;;;;;;;8.27;97.29;93451.44;5012042;28;20376;-57
2023/06/14 03:51:40;;;;;;;9.27;5.55;;;;;;;8.31;97.13;93449.44;5014999;28;20083;-58
2023/06/14 03:54:07;;;;;;;9.45;5.63;;;;;;;8.37;96.31;93445.03;5013781;28;20122;-60
2023/06/14 03:56:54;;;;;;;8.10;5.33;;;;;;;8.40;95.83;93457.09;5026492;28;20091;-57
2023/06/14 03:59:21;;;;;;;9.30;5.60;;;;;;;8.43;95.89;93459.06;5027909;28;20045;-58
2023/06/14 04:01:48;;;;;;;8.48;5.80;;;;;;;8.50;95.29;93466.38;5004922;28;20045;-55
2023/06/14 04:04:16;;;;;;;9.10;5.75;;;;;;;8.53;95.50;93466.31;5028208;28;20080;-57
2023/06/14 04:06:43;;;;;;;10.15;5.60;;;;;;;8.53;95.20;93466.31;5026720;28;20052;-59
2023/06/14 04:09:09;;;;;;;8.70;6.00;;;;;;;8.50;96.76;93471.84;5004581;28;20046;-58
2023/06/14 04:11:36;;;;;;;9.20;5.88;;;;;;;8.42;97.28;93470.41;5006854;28;20056;-57
2023/06/14 04:14:03;;;;;;;9.20;6.18;;;;;;;8.55;96.66;93468.63;5011140;28;20049;-62
2023/06/14 04:16:30;;;;;;;12.05;6.10;;;;;;;8.64;96.11;93476.34;5009445;28;20046;-56
2023/06/14 04:18:57;;;;;;;10.50;6.18;;;;;;;8.73;95.13;93473.84;5019778;28;20087;-57
2023/06/14 04:21:25;;;;;;;11.27;6.53;;;;;;;8.70;95.37;93477.41;5008663;28;20049;-57
2023/06/14 04:23:52;;;;;;;9.93;6.07;;;;;;;8.77;95.26;93490.97;5030840;28;20122;-58
2023/06/14 04:26:21;;;;;;;12.57;6.78;;;;;;;9.22;94.19;93487.91;5016635;28;20107;-57
2023/06/14 04:28:50;;;;;;;11.82;6.18;;;;;;;11.92;79.85;93474.56;5004513;28;20388;-57
2023/06/14 04:31:18;;;;;;;11.10;6.70;;;;;;;14.06;67.04;93482.06;4992120;28;20341;-57
2023/06/14 04:33:46;;;;;;;9.23;6.40;;;;;;;15.15;60.69;93483.13;5007979;28;20076;-61
2023/06/14 04:36:13;;;;;;;9.65;6.80;;;;;;;15.57;57.80;93480.63;5010164;28;20435;-60
2023/06/14 04:38:41;;;;;;;12.50;7.13;;;;;;;15.50;57.07;93480.16;5011465;28;20044;-58
2023/06/14 04:41:11;;;;;;;9.40;6.78;;;;;;;15.54;56.28;93476.00;5030086;28;20053;-58
2023/06/14 04:43:38;;;;;;;10.48;6.97;;;;;;;14.34;59.14;93481.00;5029459;28;20041;-60
2023/06/14 04:46:10;;;;;;;9.97;6.90;;;;;;;13.69;61.55;93481.78;5018861;28;20102;-62
2023/06/14 04:48:40;;;;;;;11.05;7.35;;;;;;;12.97;64.91;93484.06;5031007;28;20041;-58
2023/06/14 04:51:11;;;;;;;13.45;7.40;;;;;;;12.32;68.72;93483.25;5022588;28;20042;-56
2023/06/14 04:53:37;;;;;;;11.50;7.45;;;;;;;11.44;73.75;93487.19;5026258;28;20053;-60
2023/06/14 04:56:04;;;;;;;10.48;7.05;;;;;;;10.77;79.26;93491.16;5028581;28;20048;-56
2023/06/14 04:58:31;;;;;;;10.90;7.30;;;;;;;10.46;82.22;93501.63;5030664;28;20041;-59
2023/06/14 05:00:59;;;;;;;11.50;8.18;;;;;;;9.95;84.94;93504.59;5030210;28;20060;-60
2023/06/14 05:03:27;;;;;;;13.55;9.23;;;;;;;9.35;89.68;93505.28;5030685;28;20383;-57
2023/06/14 05:05:54;;;;;;;11.65;8.45;;;;;;;9.52;90.15;93492.47;5029726;28;20700;-59
2023/06/14 05:08:25;;;;;;;13.30;8.40;;;;;;;9.83;88.86;93488.78;5030308;28;20045;-61
2023/06/14 05:10:52;;;;;;;13.17;8.10;;;;;;;9.87;89.57;93494.97;5029463;28;20107;-58
2023/06/14 05:13:21;;;;;;;11.50;7.65;;;;;;;10.03;87.59;93494.25;5027720;28;20571;-61
2023/06/14 05:15:48;;;;;;;12.98;8.05;;;;;;;11.16;83.19;93497.69;5009744;28;20068;-58
2023/06/14 05:18:16;;;;;;;10.50;7.10;;;;;;;14.77;67.06;93486.97;5011610;28;20046;-62
2023/06/14 05:20:43;;;;;;;10.10;7.00;;;;;;;18.22;51.76;93477.97;4997585;28;20045;-63
2023/06/14 05:23:14;;;;;;;11.40;7.40;;;;;;;20.53;45.30;93486.97;5020581;28;20045;-58
2023/06/14 05:25:46;;;;;;;12.15;6.95;;;;;;;21.32;40.06;93484.88;5030309;28;20049;-61
2023/06/14 05:28:13;;;;;;;11.63;7.20;;;;;;;20.66;39.47;93489.41;5028979;28;20213;-59
2023/06/14 05:30:40;;;;;;;11.30;7.10;;;;;;;19.03;42.81;93501.88;5029106;28;20042;-63
2023/06/14 05:33:06;;;;;;;12.57;7.40;;;;;;;19.07;43.16;93496.91;5029404;28;20550;-60
2023/06/14 05:35:33;;;;;;;11.50;6.73;;;;;;;21.18;39.70;93487.84;5029954;28;20041;-61
2023/06/14 05:38:00;;;;;;;10.32;6.93;;;;;;;22.32;36.36;93488.78;5029345;28;20064;-56
2023/06/14 05:40:27;;;;;;;9.15;6.75;;;;;;;23.32;34.54;93489.50;5029783;28;20045;-56
2023/06/14 05:42:53;;;;;;;9.13;6.32;;;;;;;23.26;33.87;93487.97;5019072;28;20141;-57
2023/06/14 05:45:20;;;;;;;9.90;6.05;;;;;;;22.00;36.02;93496.50;5026052;28;20483;-60
2023/06/14 05:47:47;;;;;;;8.37;6.13;;;;;;;22.93;34.60;93501.41;5029405;28;20044;-58
2023/06/14 05:50:14;;;;;;;10.43;5.53;;;;;;;24.64;31.88;93497.09;5012605;28;20854;-61
2023/06/14 05:52:40;;;;;;;7.20;5.57;;;;;;;24.88;30.77;93497.22;5015611;28;20041;-56
2023/06/14 05:55:08;;;;;;;10.82;5.63;;;;;;;25.47;29.89;93489.41;5028654;28;20061;-58
2023/06/14 05:57:35;;;;;;;8.45;5.45;;;;;;;25.33;30.39;93496.16;5028185;28;20240;-59
2023/06/14 06:00:09;;;;;;;10.70;5.50;;;;;;;26.10;28.79;93493.16;5029127;28;20045;-61
2023/06/14 06:02:36;;;;;;;8.55;5.75;;;;;;;24.03;30.54;93502.41;5029738;28;20045;-56
2023/06/14 06:05:03;;;;;;;11.30;5.90;;;;;;;27.13;27.94;93490.59;4992178;28;20077;-56
2023/06/14 06:07:30;;;;;;;11.18;5.20;;;;;;;27.60;27.37;93498.56;4994577;28;20402;-57
2023/06/14 06:09:57;;;;;;;11.90;5.45;;;;;;;29.26;24.79;93498.47;5008894;28;20060;-62
2023/06/14 06:12:24;;;;;;;8.00;5.47;;;;;;;26.26;26.67;93496.34;5027940;28;20053;-57
2023/06/14 06:14:50;;;;;;;9.77;5.32;;;;;;;27.99;25.14;93494.34;5027069;28;20416;-61
2023/06/14 06:17:17;;;;;;;7.40;5.50;;;;;;;25.78;28.43;93497.84;5016749;28;20046;-56
2023/06/14 06:19:44;;;;;;;10.63;5.88;;;;;;;24.90;29.04;93496.69;4996322;28;20157;-59
2023/06/14 06:22:11;;;;;;;9.95;6.32;;;;;;;25.68;27.12;93494.59;5027077;28;20122;-59
2023/06/14 06:24:38;;;;;;;7.77;5.00;;;;;;;27.82;26.31;93497.44;5028850;28;20049;-57
2023/06/14 06:27:07;;;;;;;13.90;5.20;;;;;;;27.81;26.19;93501.56;4997792;28;20054;-62
2023/06/14 06:29:35;;;;;;;10.70;5.70;;;;;;;27.79;26.05;93503.38;4992817;28;20060;-62
2023/06/14 06:32:02;;;;;;;9.18;6.20;;;;;;;25.66;28.78;93505.59;4997253;28;20070;-62
2023/06/14 06:34:28;;;;;;;9.40;5.72;;;;;;;25.59;29.89;93508.97;5003024;28;20046;-59
2023/06/14 06:36:55;;;;;;;8.20;5.67;;;;;;;28.06;26.75;93499.34;5015188;28;20037;-57
2023/06/14 06:39:22;;;;;;;7.43;5.43;;;;;;;29.42;24.13;93502.97;5024666;28;20162;-58
2023/06/14 06:41:49;;;;;;;9.18;5.68;;;;;;;27.34;26.82;93502.06;5027356;28;20119;-60
2023/06/14 06:44:15;;;;;;;7.75;5.68;;;;;;;28.92;25.21;93504.84;5028827;28;20045;-58
2023/06/14 06:46:43;;;;;;;14.45;6.05;;;;;;;28.04;25.58;93504.75;5025879;28;20033;-62
2023/06/14 06:49:11;;;;;;;11.23;5.60;;;;;;;30.21;24.33;93511.56;5014614;28;20042;-59
2023/06/14 06:51:42;;;;;;;11.55;6.15;;;;;;;25.48;29.48;93516.22;5009117;28;20068;-61
2023/06/14 06:54:09;;;;;;;10.77;5.88;;;;;;;27.98;27.53;93503.34;5001722;28;20483;-59
2023/06/14 06:56:36;;;;;;;9.75;6.30;;;;;;;26.68;28.79;93510.91;5002249;28;20407;-58
2023/06/14 06:59:03;;;;;;;9.65;5.90;;;;;;;30.83;24.30;93510.63;5007397;28;20052;-58
2023/06/14 07:01:29;;;;;;;8.20;5.17;;;;;;;28.98;26.56;93513.22;5008354;28;20030;-59
2023/06/14 07:03:56;;;;;;;8.23;5.80;;;;;;;29.31;25.73;93513.78;4993231;28;20127;-58
2023/06/14 07:06:27;;;;;;;8.02;5.45;;;;;;;29.87;25.60;93518.09;4995845;28;20049;-65
2023/06/14 07:08:54;;;;;;;8.52;5.47;;;;;;;27.92;28.07;93513.97;5004404;28;20045;-62
2023/06/14 07:11:21;;;;;;;6.95;5.60;;;;;;;32.00;23.59;93503.97;5012637;28;20116;-58
2023/06/14 07:13:47;;;;;;;11.53;5.37;;;;;;;34.51;20.92;93507.59;4992402;28;20495;-55
2023/06/14 07:16:15;;;;;;;11.38;6.10;;;;;;;35.16;20.36;93517.94;5021951;28;20400;-58
2023/06/14 07:18:41;;;;;;;14.05;6.60;;;;;;;30.00;25.05;93525.75;5006429;28;20414;-58
2023/06/14 07:21:08;;;;;;;8.82;6.00;;;;;;;34.15;21.56;93519.50;5006152;28;20075;-58
2023/06/14 07:23:35;;;;;;;8.13;5.88;;;;;;;32.16;21.94;93513.25;4993334;28;20068;-64
2023/06/14 07:26:02;;;;;;;7.30;5.80;;;;;;;29.34;25.13;93523.97;5005614;28;20421;-59
2023/06/14 07:28:29;;;;;;;7.90;6.10;;;;;;;30.71;23.54;93520.00;5007800;28;20060;-59
2023/06/14 07:30:57;;;;;;;8.18;5.90;;;;;;;34.63;20.77;93504.97;4993224;28;20053;-64
2023/06/14 07:33:23;;;;;;;8.00;6.05;;;;;;;34.49;20.19;93507.41;5000565;28;20065;-62
2023/06/14 07:35:52;;;;;;;8.50;5.55;;;;;;;31.72;22.62;93502.81;4987644;28;20050;-57
2023/06/14 07:38:19;;;;;;;6.87;5.60;;;;;;;30.41;23.90;93515.69;5001291;28;20091;-57
2023/06/14 07:40:46;;;;;;;8.38;5.85;;;;;;;32.37;21.82;93510.19;4986962;28;20038;-57
2023/06/14 07:43:13;;;;;;;8.15;5.00;;;;;;;34.00;19.82;93512.53;4998460;28;20045;-59
2023/06/14 07:45:40;;;;;;;10.30;5.20;;;;;;;32.30;21.51;93511.72;5003516;28;20452;-58
2023/06/14 07:48:16;;;;;;;6.28;4.28;;;;;;;34.97;17.42;93509.97;4988435;28;21833;-58
2023/06/14 07:50:43;;;;;;;6.47;4.00;;;;;;;33.44;18.61;93514.78;5004603;28;20042;-62
2023/06/14 07:53:10;;;;;;;6.18;3.92;;;;;;;30.88;19.30;93511.81;5027654;28;20064;-58
2023/06/14 07:55:37;;;;;;;4.97;3.53;;;;;;;33.59;17.98;93505.44;5029354;28;20047;-58
2023/06/14 07:58:19;;;;;;;5.55;3.72;;;;;;;35.86;15.72;93508.44;5009221;28;20724;-64
2023/06/14 08:00:47;;;;;;;5.25;3.72;;;;;;;34.75;15.83;93516.66;4994520;28;20446;-58
2023/06/14 08:03:14;;;;;;;6.63;3.93;;;;;;;31.31;18.74;93501.00;5002096;28;20038;-58
2023/06/14 08:05:41;;;;;;;7.38;3.92;;;;;;;32.59;17.45;93500.13;5010815;28;20049;-58
2023/06/14 08:08:07;;;;;;;5.97;4.00;;;;;;;36.38;14.72;93493.91;5030825;28;20045;-64
2023/06/14 08:10:34;;;;;;;5.25;3.95;;;;;;;30.72;18.21;93505.28;5004204;28;20057;-62
2023/06/14 08:13:01;;;;;;;8.18;3.72;;;;;;;33.91;16.30;93501.06;5011170;28;20060;-59
2023/06/14 08:15:28;;;;;;;6.57;4.00;;;;;;;31.82;17.82;93503.00;4996204;28;20073;-63
2023/06/14 08:17:55;;;;;;;7.55;3.90;;;;;;;33.81;16.10;93503.78;5000606;28;20475;-58
2023/06/14 08:20:22;;;;;;;12.23;4.30;;;;;;;33.64;16.64;93504.47;5018375;28;20042;-59
2023/06/14 08:22:48;;;;;;;11.15;4.32;;;;;;;30.20;19.06;93510.81;5029408;28;20049;-59
2023/06/14 08:25:15;;;;;;;5.65;4.28;;;;;;;30.32;18.26;93519.78;5010918;28;20049;-58
2023/06/14 08:27:43;;;;;;;7.33;4.40;;;;;;;32.82;17.02;93511.44;5006798;28;20048;-60
2023/06/14 08:30:10;;;;;;;8.23;4.50;;;;;;;32.46;17.73;93509.63;5021751;28;20068;-58
2023/06/14 08:32:37;;;;;;;9.35;4.70;;;;;;;30.56;18.74;93517.84;5031191;28;20163;-58
2023/06/14 08:35:05;;;;;;;5.35;4.10;;;;;;;31.18;17.90;93514.00;5030196;28;20049;-58
2023/06/14 08:37:33;;;;;;;7.20;4.43;;;;;;;29.06;19.57;93516.88;5031257;28;20045;-58
2023/06/14 08:40:00;;;;;;;5.60;4.20;;;;;;;30.18;18.57;93519.09;5029289;28;20406;-58
2023/06/14 08:42:29;;;;;;;6.47;4.70;;;;;;;26.42;21.88;93517.88;5029923;28;20048;-58
2023/06/14 08:44:58;;;;;;;7.32;4.38;;;;;;;26.18;22.35;93518.66;5029883;28;20049;-58
2023/06/14 08:47:26;;;;;;;6.20;4.30;;;;;;;31.13;17.93;93519.84;5031025;28;20045;-62
2023/06/14 08:49:57;;;;;;;15.43;4.70;;;;;;;29.67;19.08;93523.19;5030489;28;20406;-64
2023/06/14 08:52:30;;;;;;;7.47;4.00;;;;;;;30.89;18.56;93519.00;5029817;28;20045;-58
2023/06/14 08:54:57;;;;;;;12.38;4.35;;;;;;;25.99;22.94;93531.88;5030693;28;20434;-61
2023/06/14 08:57:25;;;;;;;7.07;4.70;;;;;;;26.60;21.74;93524.84;5030877;28;20437;-64
2023/06/14 08:59:53;;;;;;;8.13;4.15;;;;;;;23.36;24.89;93539.63;5030484;28;20064;-58
2023/06/14 09:02:22;;;;;;;5.38;4.47;;;;;;;25.76;22.89;93536.94;5026266;28;20050;-61
2023/06/14 09:04:51;;;;;;;5.77;4.33;;;;;;;28.85;19.72;93526.03;5009772;28;20054;-58
2023/06/14 09:07:18;;;;;;;6.93;4.40;;;;;;;30.57;18.62;93525.81;5030917;28;20274;-60
2023/06/14 09:09:45;;;;;;;6.40;4.00;;;;;;;29.92;18.55;93528.50;5021994;28;20038;-58
2023/06/14 09:12:32;;;;;;;6.93;4.00;;;;;;;29.42;18.29;93536.91;5002070;28;20065;-58
2023/06/14 09:14:59;;;;;;;5.07;3.92;;;;;;;24.95;22.59;93537.22;4989627;28;20042;-58
2023/06/14 09:17:26;;;;;;;8.30;4.60;;;;;;;27.24;21.26;93532.69;4991543;28;20038;-57
2023/06/14 09:19:55;;;;;;;7.28;4.30;;;;;;;31.58;17.34;93529.84;4999696;28;20056;-59
2023/06/14 09:22:22;;;;;;;6.40;4.15;;;;;;;32.60;16.20;93527.22;5015444;28;20060;-58
2023/06/14 09:24:48;;;;;;;7.55;3.90;;;;;;;34.27;15.43;93523.38;5028048;28;20494;-62
2023/06/14 09:27:16;;;;;;;5.70;3.90;;;;;;;33.97;15.26;93527.22;5003574;28;20053;-59
2023/06/14 09:29:42;;;;;;;6.07;4.27;;;;;;;34.64;15.42;93529.28;5030282;28;20067;-60
2023/06/14 09:32:09;;;;;;;8.15;4.10;;;;;;;34.73;14.68;93528.66;5029758;28;20485;-58
2023/06/14 09:34:37;;;;;;;6.07;3.80;;;;;;;34.39;14.54;93513.00;5030224;28;20046;-58
2023/06/14 09:37:04;;;;;;;5.78;3.88;;;;;;;32.33;16.55;93515.50;5029616;28;20049;-58
2023/06/14 09:39:31;;;;;;;8.25;4.18;;;;;;;31.42;17.07;93518.41;5029590;28;20046;-58
2023/06/14 09:41:58;;;;;;;6.53;4.00;;;;;;;31.61;17.74;93523.00;5020029;28;20049;-61
2023/06/14 09:44:28;;;;;;;6.13;4.30;;;;;;;27.44;20.00;93534.19;5010509;28;20042;-58
2023/06/14 09:46:56;;;;;;;5.72;4.30;;;;;;;29.76;18.83;93532.50;5009846;28;20056;-58
2023/06/14 09:49:22;;;;;;;6.03;4.10;;;;;;;33.85;15.80;93529.75;5010371;28;20042;-58
2023/06/14 09:51:52;;;;;;;4.97;3.90;;;;;;;34.31;15.56;93520.88;5009792;28;20461;-60
2023/06/14 09:54:23;;;;;;;5.93;3.70;;;;;;;36.02;14.42;93523.25;5010228;28;20048;-61
2023/06/14 09:56:51;;;;;;;6.13;4.03;;;;;;;33.60;15.89;93530.44;5009573;28;20046;-62
2023/06/14 09:59:31;;;;;;;6.38;4.30;;;;;;;26.50;21.75;93543.34;5010108;28;20046;-60
2023/06/14 10:02:00;;;;;;;7.78;4.70;;;;;;;27.44;20.68;93534.19;5009201;28;20135;-60
2023/06/14 10:04:30;;;;;;;5.57;4.20;;;;;;;30.79;17.54;93535.00;5010060;28;20398;-58
2023/06/14 10:06:58;;;;;;;7.13;4.60;;;;;;;29.72;18.92;93535.72;5009527;28;20052;-57
2023/06/14 10:09:26;;;;;;;6.10;4.50;;;;;;;28.47;19.88;93528.31;5010198;28;20053;-58
2023/06/14 10:11:53;;;;;;;7.38;4.30;;;;;;;33.21;16.38;93514.91;5009238;28;20034;-59
2023/06/14 10:14:20;;;;;;;5.70;4.10;;;;;;;34.12;15.70;93526.31;5009287;28;20046;-60
2023/06/14 10:17:00;;;;;;;6.82;4.78;;;;;;;27.98;20.51;93534.38;5008285;28;20042;-61
2023/06/14 10:19:35;;;;;;;6.90;4.60;;;;;;;25.59;22.85;93537.06;5008671;28;21409;-62
2023/06/14 10:22:07;;;;;;;6.05;4.30;;;;;;;29.58;19.91;93520.84;5008001;28;20368;-58
2023/06/14 10:24:43;;;;;;;5.65;4.40;;;;;;;32.75;16.57;93520.75;5008686;28;20041;-58
2023/06/14 10:27:13;;;;;;;5.90;4.20;;;;;;;29.81;19.04;93511.84;5009622;28;20054;-63
2023/06/14 10:29:58;;;;;;;6.35;4.45;;;;;;;30.09;19.54;93513.19;5009708;28;20076;-58
2023/06/14 10:32:27;;;;;;;5.33;4.50;;;;;;;30.30;18.84;93519.56;5008534;28;20071;-59
2023/06/14 10:35:00;;;;;;;6.03;4.60;;;;;;;31.24;18.40;93511.75;5008550;28;20034;-62
2023/06/14 10:37:27;;;;;;;5.93;4.43;;;;;;;32.12;17.93;93505.13;5007790;28;20042;-60
2023/06/14 10:39:54;;;;;;;5.45;4.30;;;;;;;31.74;17.92;93508.66;5009094;28;20494;-58
2023/06/14 10:42:22;;;;;;;5.65;4.38;;;;;;;32.36;17.54;93508.69;5009037;28;20046;-58
2023/06/14 10:44:55;;;;;;;7.03;4.50;;;;;;;30.86;19.00;93508.75;5008982;28;20095;-57
2023/06/14 10:47:34;;;;;;;7.22;4.80;;;;;;;30.57;19.66;93514.47;5009143;28;20054;-63
2023/06/14 10:50:09;;;;;;;6.30;4.90;;;;;;;30.02;21.09;93506.91;5008512;28;20052;-59
2023/06/14 10:52:41;;;;;;;6.55;5.03;;;;;;;28.83;22.16;93510.94;5009356;28;20049;-61
2023/06/14 10:55:14;;;;;;;7.38;5.50;;;;;;;26.57;24.52;93505.41;5007753;28;20493;-57
2023/06/14 10:57:49;;;;;;;7.23;5.30;;;;;;;27.87;23.72;93507.91;5009221;28;20042;-57
2023/06/14 11:00:22;;;;;;;8.68;5.32;;;;;;;27.71;23.51;93497.66;5007702;28;21469;-57
2023/06/14 11:03:13;;;;;;;7.00;5.53;;;;;;;28.20;22.90;93502.19;5007911;28;20042;-62
2023/06/14 11:05:54;;;;;;;7.35;5.53;;;;;;;27.81;23.43;93504.38;5008166;28;20041;-57
2023/06/14 11:08:59;;;;;;;7.38;5.20;;;;;;;28.29;22.67;93502.50;5007424;28;21661;-57
2023/06/14 11:11:32;;;;;;;7.17;5.57;;;;;;;27.45;23.98;93501.16;5007449;28;21518;-57
2023/06/14 11:14:01;;;;;;;9.57;5.80;;;;;;;27.08;23.96;93508.31;5006452;28;20042;-58
2023/06/14 11:16:28;;;;;;;9.55;5.80;;;;;;;26.75;24.74;93507.50;5007654;28;20050;-58
2023/06/14 11:18:55;;;;;;;8.52;5.68;;;;;;;27.21;24.78;93505.59;5006819;28;20045;-57
2023/06/14 11:21:21;;;;;;;9.35;5.63;;;;;;;27.02;24.20;93507.66;5014870;28;20041;-59
2023/06/14 11:23:52;;;;;;;9.27;6.00;;;;;;;25.59;25.90;93517.41;5014992;28;20041;-57
2023/06/14 11:26:30;;;;;;;9.70;6.00;;;;;;;27.13;24.35;93510.31;5028178;28;20166;-59
2023/06/14 11:29:01;;;;;;;9.63;5.57;;;;;;;27.84;23.94;93508.94;5028646;28;20049;-57
2023/06/14 11:31:28;;;;;;;7.22;5.30;;;;;;;27.54;24.54;93506.38;5031646;28;20042;-58
2023/06/14 11:33:58;;;;;;;7.60;5.50;;;;;;;27.81;23.56;93506.44;5004106;28;20056;-57
2023/06/14 11:36:33;;;;;;;8.47;6.03;;;;;;;27.40;24.20;93504.81;5019371;28;20050;-57
2023/06/14 11:39:08;;;;;;;8.80;5.80;;;;;;;27.13;24.38;93510.31;5032291;28;20060;-57
2023/06/14 11:41:43;;;;;;;9.52;5.97;;;;;;;26.42;25.13;93517.88;5032512;28;20045;-58